sensor_id;sensor_type;location;lat;lon;timestamp;P1;durP1;ratioP1;P2;durP2;ratioP2
35795;SDS011;21916;52.428;13.302;2023-08-21T00:01:31;4.15;;;2.90;;
35795;SDS011;21916;52.428;13.302;2023-08-21T00:03:57;3.92;;;2.75;;
35795;SDS011;21916;52.428;13.302;2023-08-21T00:06:23;3.30;;;2.38;;
35795;SDS011;21916;52.428;13.302;2023-08-21T00:08:48;3.80;;;2.75;;
35795;SDS011;21916;52.428;13.302;2023-08-21T00:11:14;4.25;;;3.70;;
35795;SDS011;21916;52.428;13.302;2023-08-21T00:13:40;6.18;;;3.85;;
35795;SDS011;21916;52.428;13.302;2023-08-21T00:16:11;7.45;;;4.25;;
35795;SDS011;21916;52.428;13.302;2023-08-21T00:18:36;8.65;;;3.55;;
35795;SDS011;21916;52.428;13.302;2023-08-21T00:21:02;5.35;;;3.60;;
35795;SDS011;21916;52.428;13.302;2023-08-21T00:23:30;6.45;;;3.15;;
35795;SDS011;21916;52.428;13.302;2023-08-21T00:25:56;7.70;;;4.05;;
35795;SDS011;21916;52.428;13.302;2023-08-21T00:28:22;5.50;;;3.20;;
35795;SDS011;21916;52.428;13.302;2023-08-21T00:30:48;5.45;;;2.92;;
35795;SDS011;21916;52.428;13.302;2023-08-21T00:33:14;6.72;;;3.50;;
35795;SDS011;21916;52.428;13.302;2023-08-21T00:35:40;4.22;;;2.97;;
35795;SDS011;21916;52.428;13.302;2023-08-21T00:38:07;5.78;;;3.08;;
35795;SDS011;21916;52.428;13.302;2023-08-21T00:40:33;3.75;;;2.90;;
35795;SDS011;21916;52.428;13.302;2023-08-21T00:42:59;5.10;;;3.22;;
35795;SDS011;21916;52.428;13.302;2023-08-21T00:45:26;8.90;;;3.65;;
35795;SDS011;21916;52.428;13.302;2023-08-21T00:47:51;3.20;;;2.80;;
35795;SDS011;21916;52.428;13.302;2023-08-21T00:50:17;4.57;;;2.60;;
35795;SDS011;21916;52.428;13.302;2023-08-21T00:52:44;4.47;;;2.83;;
35795;SDS011;21916;52.428;13.302;2023-08-21T00:55:12;6.38;;;3.35;;
35795;SDS011;21916;52.428;13.302;2023-08-21T00:57:39;4.15;;;2.88;;
35795;SDS011;21916;52.428;13.302;2023-08-21T01:00:06;6.80;;;3.67;;
35795;SDS011;21916;52.428;13.302;2023-08-21T01:02:35;6.55;;;3.22;;
35795;SDS011;21916;52.428;13.302;2023-08-21T01:05:01;5.90;;;3.13;;
35795;SDS011;21916;52.428;13.302;2023-08-21T01:07:28;4.30;;;2.92;;
35795;SDS011;21916;52.428;13.302;2023-08-21T01:09:56;4.88;;;3.20;;
35795;SDS011;21916;52.428;13.302;2023-08-21T01:12:29;5.45;;;3.78;;
35795;SDS011;21916;52.428;13.302;2023-08-21T01:15:03;4.35;;;2.85;;
35795;SDS011;21916;52.428;13.302;2023-08-21T01:17:33;4.65;;;3.65;;
35795;SDS011;21916;52.428;13.302;2023-08-21T01:20:01;4.47;;;2.75;;
35795;SDS011;21916;52.428;13.302;2023-08-21T01:22:41;5.20;;;2.72;;
35795;SDS011;21916;52.428;13.302;2023-08-21T01:25:11;4.90;;;3.30;;
35795;SDS011;21916;52.428;13.302;2023-08-21T01:27:42;4.40;;;2.97;;
35795;SDS011;21916;52.428;13.302;2023-08-21T01:30:09;4.63;;;3.33;;
35795;SDS011;21916;52.428;13.302;2023-08-21T01:32:40;5.03;;;2.58;;
35795;SDS011;21916;52.428;13.302;2023-08-21T01:35:13;7.97;;;4.43;;
35795;SDS011;21916;52.428;13.302;2023-08-21T01:37:40;8.00;;;5.90;;
35795;SDS011;21916;52.428;13.302;2023-08-21T01:40:06;6.70;;;5.07;;
35795;SDS011;21916;52.428;13.302;2023-08-21T01:42:32;5.15;;;3.92;;
35795;SDS011;21916;52.428;13.302;2023-08-21T01:44:58;7.45;;;4.13;;
35795;SDS011;21916;52.428;13.302;2023-08-21T01:47:24;5.70;;;3.95;;
35795;SDS011;21916;52.428;13.302;2023-08-21T01:49:49;5.35;;;3.95;;
35795;SDS011;21916;52.428;13.302;2023-08-21T01:52:18;5.57;;;3.88;;
35795;SDS011;21916;52.428;13.302;2023-08-21T01:54:44;6.55;;;3.78;;
35795;SDS011;21916;52.428;13.302;2023-08-21T01:57:09;7.45;;;4.63;;
35795;SDS011;21916;52.428;13.302;2023-08-21T01:59:35;4.97;;;3.85;;
35795;SDS011;21916;52.428;13.302;2023-08-21T02:02:01;5.40;;;3.70;;
35795;SDS011;21916;52.428;13.302;2023-08-21T02:04:27;7.07;;;4.20;;
35795;SDS011;21916;52.428;13.302;2023-08-21T02:06:52;8.13;;;4.25;;
35795;SDS011;21916;52.428;13.302;2023-08-21T02:09:21;6.85;;;4.28;;
35795;SDS011;21916;52.428;13.302;2023-08-21T02:11:47;6.57;;;4.13;;
35795;SDS011;21916;52.428;13.302;2023-08-21T02:14:13;6.03;;;4.35;;
35795;SDS011;21916;52.428;13.302;2023-08-21T02:16:38;7.10;;;3.92;;
35795;SDS011;21916;52.428;13.302;2023-08-21T02:19:05;6.50;;;4.30;;
35795;SDS011;21916;52.428;13.302;2023-08-21T02:21:31;5.75;;;3.67;;
35795;SDS011;21916;52.428;13.302;2023-08-21T02:23:57;5.85;;;3.67;;
35795;SDS011;21916;52.428;13.302;2023-08-21T02:26:22;5.00;;;3.78;;
35795;SDS011;21916;52.428;13.302;2023-08-21T02:28:49;7.68;;;4.18;;
35795;SDS011;21916;52.428;13.302;2023-08-21T02:31:15;5.05;;;3.88;;
35795;SDS011;21916;52.428;13.302;2023-08-21T02:33:40;6.32;;;4.70;;
35795;SDS011;21916;52.428;13.302;2023-08-21T02:36:06;6.97;;;4.10;;
35795;SDS011;21916;52.428;13.302;2023-08-21T02:38:32;5.25;;;4.28;;
35795;SDS011;21916;52.428;13.302;2023-08-21T02:40:58;6.70;;;4.82;;
35795;SDS011;21916;52.428;13.302;2023-08-21T02:43:24;5.43;;;3.55;;
35795;SDS011;21916;52.428;13.302;2023-08-21T02:45:49;6.97;;;4.32;;
35795;SDS011;21916;52.428;13.302;2023-08-21T02:48:15;5.38;;;3.72;;
35795;SDS011;21916;52.428;13.302;2023-08-21T02:50:41;5.82;;;3.90;;
35795;SDS011;21916;52.428;13.302;2023-08-21T02:53:07;5.65;;;3.90;;
35795;SDS011;21916;52.428;13.302;2023-08-21T02:55:32;5.63;;;3.85;;
35795;SDS011;21916;52.428;13.302;2023-08-21T02:57:58;6.40;;;4.28;;
35795;SDS011;21916;52.428;13.302;2023-08-21T03:00:24;4.57;;;3.50;;
35795;SDS011;21916;52.428;13.302;2023-08-21T03:02:49;9.07;;;4.18;;
35795;SDS011;21916;52.428;13.302;2023-08-21T03:05:15;7.53;;;4.28;;
35795;SDS011;21916;52.428;13.302;2023-08-21T03:07:41;6.00;;;4.10;;
35795;SDS011;21916;52.428;13.302;2023-08-21T03:10:07;6.10;;;3.65;;
35795;SDS011;21916;52.428;13.302;2023-08-21T03:12:33;6.68;;;3.90;;
35795;SDS011;21916;52.428;13.302;2023-08-21T03:14:59;8.05;;;4.45;;
35795;SDS011;21916;52.428;13.302;2023-08-21T03:17:25;4.80;;;3.63;;
35795;SDS011;21916;52.428;13.302;2023-08-21T03:19:51;6.35;;;4.65;;
35795;SDS011;21916;52.428;13.302;2023-08-21T03:22:16;7.28;;;4.40;;
35795;SDS011;21916;52.428;13.302;2023-08-21T03:24:42;6.80;;;4.22;;
35795;SDS011;21916;52.428;13.302;2023-08-21T03:27:08;6.68;;;4.25;;
35795;SDS011;21916;52.428;13.302;2023-08-21T03:29:34;5.85;;;4.03;;
35795;SDS011;21916;52.428;13.302;2023-08-21T03:32:00;7.22;;;4.35;;
35795;SDS011;21916;52.428;13.302;2023-08-21T03:34:26;5.40;;;4.13;;
35795;SDS011;21916;52.428;13.302;2023-08-21T03:36:56;7.60;;;4.53;;
35795;SDS011;21916;52.428;13.302;2023-08-21T03:39:22;5.53;;;4.20;;
35795;SDS011;21916;52.428;13.302;2023-08-21T03:41:47;6.53;;;4.43;;
35795;SDS011;21916;52.428;13.302;2023-08-21T03:44:14;4.53;;;3.95;;
35795;SDS011;21916;52.428;13.302;2023-08-21T03:46:40;6.15;;;4.60;;
35795;SDS011;21916;52.428;13.302;2023-08-21T03:49:06;9.70;;;5.03;;
35795;SDS011;21916;52.428;13.302;2023-08-21T03:51:32;6.05;;;4.57;;
35795;SDS011;21916;52.428;13.302;2023-08-21T03:53:57;5.68;;;3.83;;
35795;SDS011;21916;52.428;13.302;2023-08-21T03:56:24;6.15;;;4.15;;
35795;SDS011;21916;52.428;13.302;2023-08-21T03:58:50;7.72;;;4.40;;
35795;SDS011;21916;52.428;13.302;2023-08-21T04:01:15;6.30;;;5.00;;
35795;SDS011;21916;52.428;13.302;2023-08-21T04:03:42;7.13;;;4.43;;
35795;SDS011;21916;52.428;13.302;2023-08-21T04:06:07;7.90;;;4.80;;
35795;SDS011;21916;52.428;13.302;2023-08-21T04:08:33;6.30;;;4.30;;
35795;SDS011;21916;52.428;13.302;2023-08-21T04:10:59;5.75;;;3.97;;
35795;SDS011;21916;52.428;13.302;2023-08-21T04:13:25;6.13;;;4.00;;
35795;SDS011;21916;52.428;13.302;2023-08-21T04:15:52;7.65;;;4.47;;
35795;SDS011;21916;52.428;13.302;2023-08-21T04:18:19;5.40;;;4.00;;
35795;SDS011;21916;52.428;13.302;2023-08-21T04:20:44;6.20;;;3.90;;
35795;SDS011;21916;52.428;13.302;2023-08-21T04:23:13;5.18;;;3.42;;
35795;SDS011;21916;52.428;13.302;2023-08-21T04:25:38;6.57;;;4.10;;
35795;SDS011;21916;52.428;13.302;2023-08-21T04:28:04;7.40;;;4.47;;
35795;SDS011;21916;52.428;13.302;2023-08-21T04:30:31;6.97;;;4.95;;
35795;SDS011;21916;52.428;13.302;2023-08-21T04:32:56;6.57;;;4.47;;
35795;SDS011;21916;52.428;13.302;2023-08-21T04:35:23;7.38;;;4.35;;
35795;SDS011;21916;52.428;13.302;2023-08-21T04:37:49;6.80;;;4.00;;
35795;SDS011;21916;52.428;13.302;2023-08-21T04:40:17;7.45;;;4.65;;
35795;SDS011;21916;52.428;13.302;2023-08-21T04:42:46;9.43;;;4.88;;
35795;SDS011;21916;52.428;13.302;2023-08-21T04:45:13;5.57;;;4.03;;
35795;SDS011;21916;52.428;13.302;2023-08-21T04:47:39;6.00;;;3.97;;
35795;SDS011;21916;52.428;13.302;2023-08-21T04:50:05;6.88;;;4.75;;
35795;SDS011;21916;52.428;13.302;2023-08-21T04:52:32;7.78;;;5.15;;
35795;SDS011;21916;52.428;13.302;2023-08-21T04:54:59;6.72;;;4.32;;
35795;SDS011;21916;52.428;13.302;2023-08-21T04:57:26;7.75;;;4.82;;
35795;SDS011;21916;52.428;13.302;2023-08-21T04:59:51;8.35;;;4.43;;
35795;SDS011;21916;52.428;13.302;2023-08-21T05:02:19;7.90;;;4.70;;
35795;SDS011;21916;52.428;13.302;2023-08-21T05:04:45;6.25;;;4.28;;
35795;SDS011;21916;52.428;13.302;2023-08-21T05:07:11;7.65;;;4.47;;
35795;SDS011;21916;52.428;13.302;2023-08-21T05:09:37;7.68;;;5.13;;
35795;SDS011;21916;52.428;13.302;2023-08-21T05:12:03;8.27;;;4.38;;
35795;SDS011;21916;52.428;13.302;2023-08-21T05:14:30;6.85;;;4.55;;
35795;SDS011;21916;52.428;13.302;2023-08-21T05:16:55;6.97;;;4.75;;
35795;SDS011;21916;52.428;13.302;2023-08-21T05:19:21;7.90;;;4.70;;
35795;SDS011;21916;52.428;13.302;2023-08-21T05:21:47;6.30;;;3.90;;
35795;SDS011;21916;52.428;13.302;2023-08-21T05:24:12;5.45;;;4.47;;
35795;SDS011;21916;52.428;13.302;2023-08-21T05:26:45;6.17;;;4.30;;
35795;SDS011;21916;52.428;13.302;2023-08-21T05:29:11;7.13;;;4.25;;
35795;SDS011;21916;52.428;13.302;2023-08-21T05:31:38;6.05;;;3.88;;
35795;SDS011;21916;52.428;13.302;2023-08-21T05:34:04;6.30;;;4.30;;
35795;SDS011;21916;52.428;13.302;2023-08-21T05:36:30;6.70;;;4.63;;
35795;SDS011;21916;52.428;13.302;2023-08-21T05:38:57;6.65;;;4.55;;
35795;SDS011;21916;52.428;13.302;2023-08-21T05:41:25;6.10;;;4.30;;
35795;SDS011;21916;52.428;13.302;2023-08-21T05:43:52;7.13;;;4.47;;
35795;SDS011;21916;52.428;13.302;2023-08-21T05:46:18;7.22;;;4.80;;
35795;SDS011;21916;52.428;13.302;2023-08-21T05:48:44;9.80;;;4.85;;
35795;SDS011;21916;52.428;13.302;2023-08-21T05:51:09;6.10;;;4.60;;
35795;SDS011;21916;52.428;13.302;2023-08-21T05:53:35;5.05;;;3.22;;
35795;SDS011;21916;52.428;13.302;2023-08-21T05:56:02;6.57;;;4.13;;
35795;SDS011;21916;52.428;13.302;2023-08-21T05:58:28;5.57;;;3.95;;
35795;SDS011;21916;52.428;13.302;2023-08-21T06:00:56;6.07;;;4.72;;
35795;SDS011;21916;52.428;13.302;2023-08-21T06:03:22;6.93;;;3.97;;
35795;SDS011;21916;52.428;13.302;2023-08-21T06:06:01;5.40;;;3.58;;
35795;SDS011;21916;52.428;13.302;2023-08-21T06:08:27;5.25;;;4.25;;
35795;SDS011;21916;52.428;13.302;2023-08-21T06:10:52;5.03;;;3.72;;
35795;SDS011;21916;52.428;13.302;2023-08-21T06:13:18;4.85;;;3.70;;
35795;SDS011;21916;52.428;13.302;2023-08-21T06:15:47;8.80;;;4.20;;
35795;SDS011;21916;52.428;13.302;2023-08-21T06:18:13;5.57;;;4.15;;
35795;SDS011;21916;52.428;13.302;2023-08-21T06:20:43;6.68;;;3.70;;
35795;SDS011;21916;52.428;13.302;2023-08-21T06:23:10;6.13;;;4.43;;
35795;SDS011;21916;52.428;13.302;2023-08-21T06:25:36;5.63;;;3.65;;
35795;SDS011;21916;52.428;13.302;2023-08-21T06:28:02;6.13;;;4.15;;
35795;SDS011;21916;52.428;13.302;2023-08-21T06:30:28;6.20;;;3.78;;
35795;SDS011;21916;52.428;13.302;2023-08-21T06:32:54;6.18;;;4.20;;
35795;SDS011;21916;52.428;13.302;2023-08-21T06:35:20;6.72;;;3.95;;
35795;SDS011;21916;52.428;13.302;2023-08-21T06:37:46;6.95;;;4.57;;
35795;SDS011;21916;52.428;13.302;2023-08-21T06:40:11;6.65;;;4.35;;
35795;SDS011;21916;52.428;13.302;2023-08-21T06:42:37;6.07;;;4.32;;
35795;SDS011;21916;52.428;13.302;2023-08-21T06:45:04;5.53;;;3.67;;
35795;SDS011;21916;52.428;13.302;2023-08-21T06:47:30;8.43;;;4.03;;
35795;SDS011;21916;52.428;13.302;2023-08-21T06:49:57;3.83;;;3.22;;
35795;SDS011;21916;52.428;13.302;2023-08-21T06:52:22;5.07;;;3.55;;
35795;SDS011;21916;52.428;13.302;2023-08-21T06:54:48;3.95;;;2.78;;
35795;SDS011;21916;52.428;13.302;2023-08-21T06:57:14;4.53;;;3.30;;
35795;SDS011;21916;52.428;13.302;2023-08-21T06:59:40;3.85;;;3.13;;
35795;SDS011;21916;52.428;13.302;2023-08-21T07:02:05;4.82;;;2.85;;
35795;SDS011;21916;52.428;13.302;2023-08-21T07:04:31;7.03;;;3.35;;
35795;SDS011;21916;52.428;13.302;2023-08-21T07:07:00;4.18;;;2.97;;
35795;SDS011;21916;52.428;13.302;2023-08-21T07:09:26;3.72;;;2.90;;
35795;SDS011;21916;52.428;13.302;2023-08-21T07:11:52;3.80;;;2.90;;
35795;SDS011;21916;52.428;13.302;2023-08-21T07:14:19;3.97;;;3.22;;
35795;SDS011;21916;52.428;13.302;2023-08-21T07:16:44;4.03;;;3.00;;
35795;SDS011;21916;52.428;13.302;2023-08-21T07:19:10;3.95;;;2.55;;
35795;SDS011;21916;52.428;13.302;2023-08-21T07:21:36;3.78;;;2.53;;
35795;SDS011;21916;52.428;13.302;2023-08-21T07:24:03;3.60;;;2.33;;
35795;SDS011;21916;52.428;13.302;2023-08-21T07:26:29;2.92;;;1.80;;
35795;SDS011;21916;52.428;13.302;2023-08-21T07:28:55;4.97;;;2.63;;
35795;SDS011;21916;52.428;13.302;2023-08-21T07:31:22;4.95;;;2.78;;
35795;SDS011;21916;52.428;13.302;2023-08-21T07:33:48;2.83;;;2.10;;
35795;SDS011;21916;52.428;13.302;2023-08-21T07:36:14;2.83;;;1.75;;
35795;SDS011;21916;52.428;13.302;2023-08-21T07:38:45;2.63;;;2.05;;
35795;SDS011;21916;52.428;13.302;2023-08-21T07:41:11;3.42;;;2.70;;
35795;SDS011;21916;52.428;13.302;2023-08-21T07:43:39;2.80;;;2.30;;
35795;SDS011;21916;52.428;13.302;2023-08-21T07:46:07;2.92;;;2.20;;
35795;SDS011;21916;52.428;13.302;2023-08-21T07:48:44;3.05;;;2.00;;
35795;SDS011;21916;52.428;13.302;2023-08-21T07:51:10;5.65;;;2.33;;
35795;SDS011;21916;52.428;13.302;2023-08-21T07:53:36;2.70;;;2.15;;
35795;SDS011;21916;52.428;13.302;2023-08-21T07:56:03;2.13;;;1.83;;
35795;SDS011;21916;52.428;13.302;2023-08-21T07:58:29;3.05;;;1.92;;
35795;SDS011;21916;52.428;13.302;2023-08-21T08:00:55;1.95;;;1.30;;
35795;SDS011;21916;52.428;13.302;2023-08-21T08:03:21;2.88;;;1.98;;
35795;SDS011;21916;52.428;13.302;2023-08-21T08:05:47;3.13;;;1.80;;
35795;SDS011;21916;52.428;13.302;2023-08-21T08:08:13;4.18;;;1.80;;
35795;SDS011;21916;52.428;13.302;2023-08-21T08:10:39;2.03;;;1.30;;
35795;SDS011;21916;52.428;13.302;2023-08-21T08:13:06;2.70;;;1.67;;
35795;SDS011;21916;52.428;13.302;2023-08-21T08:15:32;1.40;;;1.30;;
35795;SDS011;21916;52.428;13.302;2023-08-21T08:18:00;2.75;;;1.23;;
35795;SDS011;21916;52.428;13.302;2023-08-21T08:20:30;3.03;;;1.50;;
35795;SDS011;21916;52.428;13.302;2023-08-21T08:22:56;1.85;;;1.25;;
35795;SDS011;21916;52.428;13.302;2023-08-21T08:25:22;1.77;;;1.30;;
35795;SDS011;21916;52.428;13.302;2023-08-21T08:27:48;2.30;;;1.30;;
35795;SDS011;21916;52.428;13.302;2023-08-21T08:30:14;1.98;;;1.23;;
35795;SDS011;21916;52.428;13.302;2023-08-21T08:32:40;2.97;;;1.17;;
35795;SDS011;21916;52.428;13.302;2023-08-21T08:35:11;1.67;;;1.10;;
35795;SDS011;21916;52.428;13.302;2023-08-21T08:37:37;1.80;;;0.90;;
35795;SDS011;21916;52.428;13.302;2023-08-21T08:40:03;1.45;;;0.80;;
35795;SDS011;21916;52.428;13.302;2023-08-21T08:42:29;1.30;;;1.00;;
35795;SDS011;21916;52.428;13.302;2023-08-21T08:44:55;2.50;;;0.77;;
35795;SDS011;21916;52.428;13.302;2023-08-21T08:47:24;2.78;;;1.05;;
35795;SDS011;21916;52.428;13.302;2023-08-21T08:49:50;2.67;;;0.73;;
35795;SDS011;21916;52.428;13.302;2023-08-21T08:52:19;1.98;;;0.85;;
35795;SDS011;21916;52.428;13.302;2023-08-21T08:54:45;1.25;;;0.90;;
35795;SDS011;21916;52.428;13.302;2023-08-21T08:57:11;2.38;;;1.20;;
35795;SDS011;21916;52.428;13.302;2023-08-21T08:59:37;1.52;;;1.23;;
35795;SDS011;21916;52.428;13.302;2023-08-21T09:02:02;1.27;;;0.70;;
35795;SDS011;21916;52.428;13.302;2023-08-21T09:04:28;1.70;;;0.70;;
35795;SDS011;21916;52.428;13.302;2023-08-21T09:07:07;1.05;;;0.77;;
35795;SDS011;21916;52.428;13.302;2023-08-21T09:09:39;1.00;;;0.57;;
35795;SDS011;21916;52.428;13.302;2023-08-21T09:12:10;1.65;;;0.70;;
35795;SDS011;21916;52.428;13.302;2023-08-21T09:14:37;0.77;;;0.43;;
35795;SDS011;21916;52.428;13.302;2023-08-21T09:17:04;0.57;;;0.55;;
35795;SDS011;21916;52.428;13.302;2023-08-21T09:19:30;1.55;;;0.60;;
35795;SDS011;21916;52.428;13.302;2023-08-21T09:21:56;0.40;;;0.40;;
35795;SDS011;21916;52.428;13.302;2023-08-21T09:24:22;1.38;;;0.40;;
35795;SDS011;21916;52.428;13.302;2023-08-21T09:26:49;1.85;;;0.40;;
35795;SDS011;21916;52.428;13.302;2023-08-21T09:29:15;1.25;;;0.57;;
35795;SDS011;21916;52.428;13.302;2023-08-21T09:31:41;1.00;;;0.70;;
35795;SDS011;21916;52.428;13.302;2023-08-21T09:34:08;0.85;;;0.50;;
35795;SDS011;21916;52.428;13.302;2023-08-21T09:36:34;0.63;;;0.40;;
35795;SDS011;21916;52.428;13.302;2023-08-21T09:39:01;1.45;;;0.60;;
35795;SDS011;21916;52.428;13.302;2023-08-21T09:41:28;0.80;;;0.50;;
35795;SDS011;21916;52.428;13.302;2023-08-21T09:43:58;1.65;;;0.50;;
35795;SDS011;21916;52.428;13.302;2023-08-21T09:46:25;1.50;;;0.68;;
35795;SDS011;21916;52.428;13.302;2023-08-21T09:48:51;0.85;;;0.52;;
35795;SDS011;21916;52.428;13.302;2023-08-21T09:51:18;1.33;;;0.50;;
35795;SDS011;21916;52.428;13.302;2023-08-21T09:53:44;0.88;;;0.40;;
35795;SDS011;21916;52.428;13.302;2023-08-21T09:56:12;0.50;;;0.30;;
35795;SDS011;21916;52.428;13.302;2023-08-21T09:58:39;0.43;;;0.22;;
35795;SDS011;21916;52.428;13.302;2023-08-21T10:01:05;1.55;;;0.40;;
35795;SDS011;21916;52.428;13.302;2023-08-21T10:03:39;2.15;;;0.52;;
35795;SDS011;21916;52.428;13.302;2023-08-21T10:06:08;0.52;;;0.40;;
35795;SDS011;21916;52.428;13.302;2023-08-21T10:08:38;1.85;;;0.40;;
35795;SDS011;21916;52.428;13.302;2023-08-21T10:11:08;0.50;;;0.43;;
35795;SDS011;21916;52.428;13.302;2023-08-21T10:13:36;0.95;;;0.40;;
35795;SDS011;21916;52.428;13.302;2023-08-21T10:16:04;0.70;;;0.40;;
35795;SDS011;21916;52.428;13.302;2023-08-21T10:18:31;2.45;;;0.63;;
35795;SDS011;21916;52.428;13.302;2023-08-21T10:23:46;0.40;;;0.38;;
35795;SDS011;21916;52.428;13.302;2023-08-21T10:26:13;0.50;;;0.50;;
35795;SDS011;21916;52.428;13.302;2023-08-21T10:28:47;0.85;;;0.40;;
35795;SDS011;21916;52.428;13.302;2023-08-21T10:31:25;0.40;;;0.30;;
35795;SDS011;21916;52.428;13.302;2023-08-21T10:33:50;0.40;;;0.38;;
35795;SDS011;21916;52.428;13.302;2023-08-21T10:36:36;0.73;;;0.38;;
35795;SDS011;21916;52.428;13.302;2023-08-21T10:41:55;2.58;;;0.65;;
35795;SDS011;21916;52.428;13.302;2023-08-21T10:44:35;2.47;;;0.50;;
35795;SDS011;21916;52.428;13.302;2023-08-21T10:49:53;1.30;;;0.47;;
35795;SDS011;21916;52.428;13.302;2023-08-21T10:52:26;0.70;;;0.70;;
35795;SDS011;21916;52.428;13.302;2023-08-21T10:54:53;0.38;;;0.38;;
35795;SDS011;21916;52.428;13.302;2023-08-21T10:57:22;0.38;;;0.30;;
35795;SDS011;21916;52.428;13.302;2023-08-21T11:00:03;0.88;;;0.43;;
35795;SDS011;21916;52.428;13.302;2023-08-21T11:02:40;1.27;;;0.40;;
35795;SDS011;21916;52.428;13.302;2023-08-21T11:05:07;1.83;;;0.85;;
35795;SDS011;21916;52.428;13.302;2023-08-21T11:07:38;0.28;;;0.20;;
35795;SDS011;21916;52.428;13.302;2023-08-21T11:10:15;3.17;;;0.77;;
35795;SDS011;21916;52.428;13.302;2023-08-21T11:12:53;1.08;;;0.50;;
35795;SDS011;21916;52.428;13.302;2023-08-21T11:15:20;1.45;;;1.00;;
35795;SDS011;21916;52.428;13.302;2023-08-21T11:17:54;0.95;;;0.57;;
35795;SDS011;21916;52.428;13.302;2023-08-21T11:20:21;0.68;;;0.50;;
35795;SDS011;21916;52.428;13.302;2023-08-21T11:22:48;0.65;;;0.40;;
35795;SDS011;21916;52.428;13.302;2023-08-21T11:25:17;0.70;;;0.55;;
35795;SDS011;21916;52.428;13.302;2023-08-21T11:27:43;1.90;;;0.60;;
35795;SDS011;21916;52.428;13.302;2023-08-21T11:30:10;0.57;;;0.38;;
35795;SDS011;21916;52.428;13.302;2023-08-21T11:32:37;0.85;;;0.45;;
35795;SDS011;21916;52.428;13.302;2023-08-21T11:35:02;0.55;;;0.35;;
35795;SDS011;21916;52.428;13.302;2023-08-21T11:37:29;0.93;;;0.40;;
35795;SDS011;21916;52.428;13.302;2023-08-21T11:39:55;0.60;;;0.40;;
35795;SDS011;21916;52.428;13.302;2023-08-21T11:42:28;1.75;;;0.40;;
35795;SDS011;21916;52.428;13.302;2023-08-21T11:44:55;0.90;;;0.45;;
35795;SDS011;21916;52.428;13.302;2023-08-21T11:47:22;2.17;;;0.65;;
35795;SDS011;21916;52.428;13.302;2023-08-21T11:49:49;0.40;;;0.30;;
35795;SDS011;21916;52.428;13.302;2023-08-21T11:52:19;0.30;;;0.30;;
35795;SDS011;21916;52.428;13.302;2023-08-21T11:54:49;0.93;;;0.55;;
35795;SDS011;21916;52.428;13.302;2023-08-21T11:57:17;1.33;;;0.30;;
35795;SDS011;21916;52.428;13.302;2023-08-21T11:59:48;0.40;;;0.35;;
35795;SDS011;21916;52.428;13.302;2023-08-21T12:02:23;0.30;;;0.30;;
35795;SDS011;21916;52.428;13.302;2023-08-21T12:04:53;1.08;;;0.55;;
35795;SDS011;21916;52.428;13.302;2023-08-21T12:07:27;1.70;;;0.52;;
35795;SDS011;21916;52.428;13.302;2023-08-21T12:09:53;1.38;;;0.38;;
35795;SDS011;21916;52.428;13.302;2023-08-21T12:12:18;1.08;;;0.40;;
35795;SDS011;21916;52.428;13.302;2023-08-21T12:14:44;0.88;;;0.45;;
35795;SDS011;21916;52.428;13.302;2023-08-21T12:17:11;2.33;;;0.50;;
35795;SDS011;21916;52.428;13.302;2023-08-21T12:19:36;2.28;;;0.55;;
35795;SDS011;21916;52.428;13.302;2023-08-21T12:22:02;1.67;;;0.40;;
35795;SDS011;21916;52.428;13.302;2023-08-21T12:24:28;0.43;;;0.30;;
35795;SDS011;21916;52.428;13.302;2023-08-21T12:26:55;1.40;;;0.50;;
35795;SDS011;21916;52.428;13.302;2023-08-21T12:29:20;1.58;;;0.43;;
35795;SDS011;21916;52.428;13.302;2023-08-21T12:31:46;1.38;;;0.60;;
35795;SDS011;21916;52.428;13.302;2023-08-21T12:34:12;0.75;;;0.32;;
35795;SDS011;21916;52.428;13.302;2023-08-21T12:36:38;3.15;;;0.55;;
35795;SDS011;21916;52.428;13.302;2023-08-21T12:39:04;0.90;;;0.40;;
35795;SDS011;21916;52.428;13.302;2023-08-21T12:41:30;2.97;;;0.85;;
35795;SDS011;21916;52.428;13.302;2023-08-21T12:43:58;0.73;;;0.45;;
35795;SDS011;21916;52.428;13.302;2023-08-21T12:46:24;1.02;;;0.47;;
35795;SDS011;21916;52.428;13.302;2023-08-21T12:48:53;0.52;;;0.50;;
35795;SDS011;21916;52.428;13.302;2023-08-21T12:51:19;0.77;;;0.40;;
35795;SDS011;21916;52.428;13.302;2023-08-21T12:53:45;0.70;;;0.57;;
35795;SDS011;21916;52.428;13.302;2023-08-21T12:56:10;0.50;;;0.50;;
35795;SDS011;21916;52.428;13.302;2023-08-21T12:58:36;0.98;;;0.50;;
35795;SDS011;21916;52.428;13.302;2023-08-21T13:01:02;0.90;;;0.38;;
35795;SDS011;21916;52.428;13.302;2023-08-21T13:03:28;0.32;;;0.28;;
35795;SDS011;21916;52.428;13.302;2023-08-21T13:05:54;1.50;;;0.60;;
35795;SDS011;21916;52.428;13.302;2023-08-21T13:08:20;0.50;;;0.30;;
35795;SDS011;21916;52.428;13.302;2023-08-21T13:10:46;0.30;;;0.30;;
35795;SDS011;21916;52.428;13.302;2023-08-21T13:13:12;1.55;;;0.52;;
35795;SDS011;21916;52.428;13.302;2023-08-21T13:15:38;0.38;;;0.30;;
35795;SDS011;21916;52.428;13.302;2023-08-21T13:18:04;1.27;;;0.75;;
35795;SDS011;21916;52.428;13.302;2023-08-21T13:20:30;0.65;;;0.30;;
35795;SDS011;21916;52.428;13.302;2023-08-21T13:22:56;0.90;;;0.30;;
35795;SDS011;21916;52.428;13.302;2023-08-21T13:25:23;1.05;;;0.60;;
35795;SDS011;21916;52.428;13.302;2023-08-21T13:27:50;1.75;;;0.30;;
35795;SDS011;21916;52.428;13.302;2023-08-21T13:30:16;0.95;;;0.30;;
35795;SDS011;21916;52.428;13.302;2023-08-21T13:32:42;0.80;;;0.52;;
35795;SDS011;21916;52.428;13.302;2023-08-21T13:35:09;0.88;;;0.43;;
35795;SDS011;21916;52.428;13.302;2023-08-21T13:37:36;1.13;;;0.30;;
35795;SDS011;21916;52.428;13.302;2023-08-21T13:40:03;1.25;;;0.40;;
35795;SDS011;21916;52.428;13.302;2023-08-21T13:42:39;0.77;;;0.40;;
35795;SDS011;21916;52.428;13.302;2023-08-21T13:47:36;0.93;;;0.30;;
35795;SDS011;21916;52.428;13.302;2023-08-21T13:50:03;1.77;;;0.47;;
35795;SDS011;21916;52.428;13.302;2023-08-21T13:52:30;1.35;;;0.50;;
35795;SDS011;21916;52.428;13.302;2023-08-21T13:54:56;0.80;;;0.30;;
35795;SDS011;21916;52.428;13.302;2023-08-21T13:57:22;1.10;;;0.47;;
35795;SDS011;21916;52.428;13.302;2023-08-21T13:59:47;0.50;;;0.40;;
35795;SDS011;21916;52.428;13.302;2023-08-21T14:02:13;0.95;;;0.30;;
35795;SDS011;21916;52.428;13.302;2023-08-21T14:04:39;0.85;;;0.75;;
35795;SDS011;21916;52.428;13.302;2023-08-21T14:07:04;0.45;;;0.38;;
35795;SDS011;21916;52.428;13.302;2023-08-21T14:09:30;0.43;;;0.35;;
35795;SDS011;21916;52.428;13.302;2023-08-21T14:11:57;1.48;;;0.30;;
35795;SDS011;21916;52.428;13.302;2023-08-21T14:14:23;4.03;;;0.60;;
35795;SDS011;21916;52.428;13.302;2023-08-21T14:16:48;0.80;;;0.43;;
35795;SDS011;21916;52.428;13.302;2023-08-21T14:19:14;0.30;;;0.20;;
35795;SDS011;21916;52.428;13.302;2023-08-21T14:21:40;0.32;;;0.28;;
35795;SDS011;21916;52.428;13.302;2023-08-21T14:24:05;0.40;;;0.40;;
35795;SDS011;21916;52.428;13.302;2023-08-21T14:26:33;1.65;;;0.60;;
35795;SDS011;21916;52.428;13.302;2023-08-21T14:28:58;0.73;;;0.40;;
35795;SDS011;21916;52.428;13.302;2023-08-21T14:31:24;0.75;;;0.63;;
35795;SDS011;21916;52.428;13.302;2023-08-21T14:33:50;1.48;;;0.40;;
35795;SDS011;21916;52.428;13.302;2023-08-21T14:36:16;2.70;;;0.60;;
35795;SDS011;21916;52.428;13.302;2023-08-21T14:38:42;0.90;;;0.50;;
35795;SDS011;21916;52.428;13.302;2023-08-21T14:41:07;1.08;;;0.40;;
35795;SDS011;21916;52.428;13.302;2023-08-21T14:43:33;0.98;;;0.40;;